Dobrodošli na spletni strani vremenske postaje Senovo. Vse informacije so informativnega značaja, saj vremenska postaja ni del državne mreže meteoroloških postaj. AKTUALNIH OBVESTIL NI.


Sneg/Led Od: 23-02-2018 00:00 Do: 23:59 Opozorilo za: Sneg/Led Stopnja: Rumena info button

Pogled proti Armezu več informacij Pogled proti Armezu


Lisca več informacij Lisca


Radar strel več informacij blitzortung!


opozorilo za sneg/led več informacij rain snow radar


Obiščite še:

Template documentation
and downloads

And another site



Weather Underground, zgodovina - Tekstovno

Dnevni povzetek za Januar 13, 2018 Enote:  Obe    Angleško   Metrično
« Predhodni Dan
Naslednji Dan »
Dnevni Tedenski Mesečni Letni Po meri
  Višja: Nižja: Povprečje:
Temperatura: TemperatureC °F /  -17.8 °C 2.6 °F /  -16.3 °C 3.8 °F /  -15.7 °C
Točka rosišča: DewpointC °F /  -17.8 °C 0.8 °F /  -17.3 °C 1.9 °F /  -16.7 °C
Vlažnost: Humidity % 86 % 87 %
Hitrost vetra: WindSpeedKMH mph /  0 km/h - 6.5 mph /  10.5 km/h
Sunki vetra: WindSpeedGustKMH mph /  0 km/h - -
Veter:- - ENE
Zračni tlak: PressurehPa in /  0 hPa 1021.9 in /  34601.5 hPa -
Padavine: 0.0 in /  0 mm    
Historical Graphs
 
 
Tabelarni podarki za Januar 13, 2018
Čas Temperatura Točka rosišča Zračni tlak Veter Hitrost vetra Sunki vetra Vlažnost Intenziteta padavin (urna)
TemperatureC °F /  -17.8 °C DewpointC °F /  -17.8 °C PressurehPa in /  0 hPa Calm     Humidity % HourlyPrecipMM in /  0 mm
00:03 4.8 °F /  -15.1 °C 2.7 °F /  -16.3 °C 1022.9 in /  34635.4 hPa ENE 6.3 mph /  10.1 km/h 10.1 mph /  16.3 km/h 86 % 0.0 in /  0 mm
00:09 4.8 °F /  -15.1 °C 2.7 °F /  -16.3 °C 1022.9 in /  34635.4 hPa East 5.8 mph /  9.3 km/h 13.0 mph /  20.9 km/h 86 % 0.0 in /  0 mm
00:20 4.7 °F /  -15.2 °C 2.6 °F /  -16.3 °C 1022.9 in /  34635.4 hPa East 6.9 mph /  11.1 km/h 14.0 mph /  22.5 km/h 86 % 0.0 in /  0 mm
00:31 4.8 °F /  -15.1 °C 2.7 °F /  -16.3 °C 1021.9 in /  34601.5 hPa NE 9.3 mph /  15 km/h 21.2 mph /  34.1 km/h 86 % 0.0 in /  0 mm
00:36 4.8 °F /  -15.1 °C 2.7 °F /  -16.3 °C 1021.9 in /  34601.5 hPa NE 11.1 mph /  17.9 km/h 21.2 mph /  34.1 km/h 86 % 0.0 in /  0 mm
00:41 4.8 °F /  -15.1 °C 2.7 °F /  -16.3 °C 1021.9 in /  34601.5 hPa ENE 9.5 mph /  15.3 km/h 21.2 mph /  34.1 km/h 86 % 0.0 in /  0 mm
00:50 4.7 °F /  -15.2 °C 2.6 °F /  -16.3 °C 1021.9 in /  34601.5 hPa East 5.8 mph /  9.3 km/h 11.9 mph /  19.2 km/h 86 % 0.0 in /  0 mm
00:57 4.7 °F /  -15.2 °C 2.6 °F /  -16.3 °C 1021.9 in /  34601.5 hPa East 5.6 mph /  9 km/h 10.1 mph /  16.3 km/h 86 % 0.0 in /  0 mm
01:02 4.7 °F /  -15.2 °C 2.6 °F /  -16.3 °C 1021.9 in /  34601.5 hPa ENE 5.0 mph /  8 km/h 10.1 mph /  16.3 km/h 86 % 0.0 in /  0 mm
01:29 4.6 °F /  -15.2 °C 2.4 °F /  -16.4 °C 1022.9 in /  34635.4 hPa NNE 6.3 mph /  10.1 km/h 10.8 mph /  17.4 km/h 86 % 0.0 in /  0 mm
01:49 4.6 °F /  -15.2 °C 2.4 °F /  -16.4 °C 1022.9 in /  34635.4 hPa NE 5.0 mph /  8 km/h 10.1 mph /  16.3 km/h 86 % 0.0 in /  0 mm
01:56 4.6 °F /  -15.2 °C 2.4 °F /  -16.4 °C 1023.9 in /  34669.3 hPa ENE 5.8 mph /  9.3 km/h 11.6 mph /  18.7 km/h 86 % 0.0 in /  0 mm
02:03 4.6 °F /  -15.2 °C 2.4 °F /  -16.4 °C 1023.9 in /  34669.3 hPa ESE 2.7 mph /  4.3 km/h 7.9 mph /  12.7 km/h 86 % 0.0 in /  0 mm
02:09 4.6 °F /  -15.2 °C 2.4 °F /  -16.4 °C 1023.9 in /  34669.3 hPa East 2.7 mph /  4.3 km/h 10.1 mph /  16.3 km/h 86 % 0.0 in /  0 mm
02:28 4.6 °F /  -15.2 °C 2.6 °F /  -16.3 °C 1022.9 in /  34635.4 hPa ENE 5.5 mph /  8.9 km/h 13.7 mph /  22 km/h 87 % 0.0 in /  0 mm
02:39 4.6 °F /  -15.2 °C 2.6 °F /  -16.3 °C 1022.9 in /  34635.4 hPa ENE 5.6 mph /  9 km/h 15.8 mph /  25.4 km/h 87 % 0.0 in /  0 mm
02:46 4.6 °F /  -15.2 °C 2.6 °F /  -16.3 °C 1022.9 in /  34635.4 hPa ENE 6.0 mph /  9.7 km/h 13.0 mph /  20.9 km/h 87 % 0.0 in /  0 mm
02:54 4.6 °F /  -15.2 °C 2.6 °F /  -16.3 °C 1022.9 in /  34635.4 hPa East 3.9 mph /  6.3 km/h 7.9 mph /  12.7 km/h 87 % 0.0 in /  0 mm
03:07 4.6 °F /  -15.2 °C 2.6 °F /  -16.3 °C 1021.9 in /  34601.5 hPa East 5.3 mph /  8.5 km/h 9.7 mph /  15.6 km/h 87 % 0.0 in /  0 mm
03:12 4.6 °F /  -15.2 °C 2.6 °F /  -16.3 °C 1022.9 in /  34635.4 hPa East 4.7 mph /  7.6 km/h 6.9 mph /  11.1 km/h 87 % 0.0 in /  0 mm
03:19 4.6 °F /  -15.2 °C 2.6 °F /  -16.3 °C 1022.9 in /  34635.4 hPa East 4.8 mph /  7.7 km/h 6.9 mph /  11.1 km/h 87 % 0.0 in /  0 mm
03:25 4.6 °F /  -15.2 °C 2.6 °F /  -16.3 °C 1022.9 in /  34635.4 hPa East 4.3 mph /  6.9 km/h 8.7 mph /  14 km/h 87 % 0.0 in /  0 mm
03:30 4.6 °F /  -15.2 °C 2.6 °F /  -16.3 °C 1022.9 in /  34635.4 hPa East 4.2 mph /  6.8 km/h 8.7 mph /  14 km/h 87 % 0.0 in /  0 mm
03:37 4.6 °F /  -15.2 °C 2.6 °F /  -16.3 °C 1022.9 in /  34635.4 hPa ENE 3.9 mph /  6.3 km/h 6.4 mph /  10.3 km/h 87 % 0.0 in /  0 mm
03:54 4.6 °F /  -15.2 °C 2.6 °F /  -16.3 °C 1023.9 in /  34669.3 hPa ENE 6.3 mph /  10.1 km/h 12.2 mph /  19.6 km/h 87 % 0.0 in /  0 mm
03:59 4.6 °F /  -15.2 °C 2.6 °F /  -16.3 °C 1022.9 in /  34635.4 hPa East 6.8 mph /  10.9 km/h 12.2 mph /  19.6 km/h 87 % 0.0 in /  0 mm
04:05 4.5 °F /  -15.3 °C 2.5 °F /  -16.4 °C 1022.9 in /  34635.4 hPa ENE 6.3 mph /  10.1 km/h 11.9 mph /  19.2 km/h 87 % 0.0 in /  0 mm
04:12 4.5 °F /  -15.3 °C 2.5 °F /  -16.4 °C 1022.9 in /  34635.4 hPa ENE 6.4 mph /  10.3 km/h 9.3 mph /  15 km/h 87 % 0.0 in /  0 mm
04:21 4.5 °F /  -15.3 °C 2.5 °F /  -16.4 °C 1022.9 in /  34635.4 hPa ENE 7.1 mph /  11.4 km/h 15.1 mph /  24.3 km/h 87 % 0.0 in /  0 mm
04:31 4.5 °F /  -15.3 °C 2.5 °F /  -16.4 °C 1022.9 in /  34635.4 hPa East 4.7 mph /  7.6 km/h 10.5 mph /  16.9 km/h 87 % 0.0 in /  0 mm
04:36 4.4 °F /  -15.3 °C 2.4 °F /  -16.4 °C 1022.9 in /  34635.4 hPa ENE 5.3 mph /  8.5 km/h 10.5 mph /  16.9 km/h 87 % 0.0 in /  0 mm
04:42 4.4 °F /  -15.3 °C 2.4 °F /  -16.4 °C 1022.9 in /  34635.4 hPa NE 6.0 mph /  9.7 km/h 10.5 mph /  16.9 km/h 87 % 0.0 in /  0 mm
04:54 4.4 °F /  -15.3 °C 2.4 °F /  -16.4 °C 1022.9 in /  34635.4 hPa NE 6.9 mph /  11.1 km/h 13.0 mph /  20.9 km/h 87 % 0.0 in /  0 mm
05:00 4.4 °F /  -15.3 °C 2.4 °F /  -16.4 °C 1022.9 in /  34635.4 hPa NE 5.5 mph /  8.9 km/h 8.7 mph /  14 km/h 87 % 0.0 in /  0 mm
05:20 4.3 °F /  -15.4 °C 2.3 °F /  -16.5 °C 1022.9 in /  34635.4 hPa East 5.5 mph /  8.9 km/h 12.6 mph /  20.3 km/h 87 % 0.0 in /  0 mm
05:33 4.3 °F /  -15.4 °C 2.3 °F /  -16.5 °C 1022.9 in /  34635.4 hPa ENE 4.8 mph /  7.7 km/h 9.0 mph /  14.5 km/h 87 % 0.0 in /  0 mm
05:44 4.2 °F /  -15.4 °C 2.2 °F /  -16.6 °C 1022.9 in /  34635.4 hPa East 6.6 mph /  10.6 km/h 10.5 mph /  16.9 km/h 87 % 0.0 in /  0 mm
05:50 4.2 °F /  -15.4 °C 2.2 °F /  -16.6 °C 1022.9 in /  34635.4 hPa East 7.6 mph /  12.2 km/h 13.0 mph /  20.9 km/h 87 % 0.0 in /  0 mm
05:59 4.2 °F /  -15.4 °C 2.2 °F /  -16.6 °C 1022.9 in /  34635.4 hPa ENE 5.1 mph /  8.2 km/h 9.0 mph /  14.5 km/h 87 % 0.0 in /  0 mm
06:15 4.1 °F /  -15.5 °C 2.1 °F /  -16.6 °C 1022.9 in /  34635.4 hPa ENE 5.0 mph /  8 km/h 10.1 mph /  16.3 km/h 87 % 0.0 in /  0 mm
06:21 4.1 °F /  -15.5 °C 2.1 °F /  -16.6 °C 1022.9 in /  34635.4 hPa East 5.8 mph /  9.3 km/h 11.6 mph /  18.7 km/h 87 % 0.0 in /  0 mm
06:36 4.0 °F /  -15.6 °C 2.1 °F /  -16.6 °C 1022.9 in /  34635.4 hPa East 7.6 mph /  12.2 km/h 11.9 mph /  19.2 km/h 87 % 0.0 in /  0 mm
06:44 4.0 °F /  -15.6 °C 2.1 °F /  -16.6 °C 1022.9 in /  34635.4 hPa East 7.2 mph /  11.6 km/h 13.7 mph /  22 km/h 87 % 0.0 in /  0 mm
06:54 4.0 °F /  -15.6 °C 2.1 °F /  -16.6 °C 1022.9 in /  34635.4 hPa East 7.2 mph /  11.6 km/h 13.0 mph /  20.9 km/h 87 % 0.0 in /  0 mm
07:01 4.0 °F /  -15.6 °C 2.1 °F /  -16.6 °C 1022.9 in /  34635.4 hPa East 8.8 mph /  14.2 km/h 13.7 mph /  22 km/h 87 % 0.0 in /  0 mm
07:09 3.9 °F /  -15.6 °C 2.1 °F /  -16.6 °C 1022.9 in /  34635.4 hPa East 7.9 mph /  12.7 km/h 16.9 mph /  27.2 km/h 88 % 0.0 in /  0 mm
07:16 4.0 °F /  -15.6 °C 2.2 °F /  -16.6 °C 1022.9 in /  34635.4 hPa East 7.6 mph /  12.2 km/h 16.9 mph /  27.2 km/h 88 % 0.0 in /  0 mm
07:22 4.0 °F /  -15.6 °C 2.2 °F /  -16.6 °C 1022.9 in /  34635.4 hPa East 7.2 mph /  11.6 km/h 10.5 mph /  16.9 km/h 88 % 0.0 in /  0 mm
07:28 3.9 °F /  -15.6 °C 2.1 °F /  -16.6 °C 1021.9 in /  34601.5 hPa East 8.4 mph /  13.5 km/h 13.7 mph /  22 km/h 88 % 0.0 in /  0 mm
07:34 3.9 °F /  -15.6 °C 2.1 °F /  -16.6 °C 1021.9 in /  34601.5 hPa East 9.2 mph /  14.8 km/h 15.4 mph /  24.8 km/h 88 % 0.0 in /  0 mm
07:41 3.9 °F /  -15.6 °C 2.1 °F /  -16.6 °C 1021.9 in /  34601.5 hPa East 8.5 mph /  13.7 km/h 16.6 mph /  26.7 km/h 88 % 0.0 in /  0 mm
07:55 3.9 °F /  -15.6 °C 2.1 °F /  -16.6 °C 1021.9 in /  34601.5 hPa East 6.9 mph /  11.1 km/h 16.3 mph /  26.2 km/h 88 % 0.0 in /  0 mm
08:02 3.9 °F /  -15.6 °C 2.1 °F /  -16.6 °C 1022.9 in /  34635.4 hPa East 9.5 mph /  15.3 km/h 16.3 mph /  26.2 km/h 88 % 0.0 in /  0 mm
08:08 3.9 °F /  -15.6 °C 2.3 °F /  -16.5 °C 1022.9 in /  34635.4 hPa East 9.0 mph /  14.5 km/h 13.7 mph /  22 km/h 89 % 0.0 in /  0 mm
08:24 3.8 °F /  -15.7 °C 2.2 °F /  -16.6 °C 1022.9 in /  34635.4 hPa ENE 8.7 mph /  14 km/h 16.9 mph /  27.2 km/h 89 % 0.0 in /  0 mm
08:30 3.8 °F /  -15.7 °C 2.2 °F /  -16.6 °C 1022.9 in /  34635.4 hPa East 8.0 mph /  12.9 km/h 12.2 mph /  19.6 km/h 89 % 0.0 in /  0 mm
08:36 3.8 °F /  -15.7 °C 2.2 °F /  -16.6 °C 1022.9 in /  34635.4 hPa East 10.0 mph /  16.1 km/h 20.6 mph /  33.2 km/h 89 % 0.0 in /  0 mm
08:41 3.8 °F /  -15.7 °C 2.2 °F /  -16.6 °C 1022.9 in /  34635.4 hPa ENE 9.3 mph /  15 km/h 13.7 mph /  22 km/h 89 % 0.0 in /  0 mm
08:51 3.8 °F /  -15.7 °C 2.2 °F /  -16.6 °C 1022.9 in /  34635.4 hPa East 10.1 mph /  16.3 km/h 24.5 mph /  39.4 km/h 89 % 0.0 in /  0 mm
09:01 3.8 °F /  -15.7 °C 2.2 °F /  -16.6 °C 1022.9 in /  34635.4 hPa East 8.4 mph /  13.5 km/h 19.1 mph /  30.7 km/h 89 % 0.0 in /  0 mm
09:09 3.8 °F /  -15.7 °C 2.2 °F /  -16.6 °C 1022.9 in /  34635.4 hPa ENE 9.0 mph /  14.5 km/h 15.8 mph /  25.4 km/h 89 % 0.0 in /  0 mm
09:29 3.9 °F /  -15.6 °C 2.3 °F /  -16.5 °C 1022.9 in /  34635.4 hPa ENE 8.2 mph /  13.2 km/h 16.3 mph /  26.2 km/h 89 % 0.0 in /  0 mm
09:36 3.9 °F /  -15.6 °C 2.3 °F /  -16.5 °C 1022.9 in /  34635.4 hPa NE 7.1 mph /  11.4 km/h 13.0 mph /  20.9 km/h 89 % 0.0 in /  0 mm
09:48 4.0 °F /  -15.6 °C 2.3 °F /  -16.5 °C 1022.9 in /  34635.4 hPa NE 5.6 mph /  9 km/h 12.2 mph /  19.6 km/h 89 % 0.0 in /  0 mm
10:01 4.0 °F /  -15.6 °C 2.3 °F /  -16.5 °C 1022.9 in /  34635.4 hPa NE 5.3 mph /  8.5 km/h 14.0 mph /  22.5 km/h 89 % 0.0 in /  0 mm
10:10 4.1 °F /  -15.5 °C 2.4 °F /  -16.4 °C 1022.9 in /  34635.4 hPa NE 5.6 mph /  9 km/h 14.0 mph /  22.5 km/h 89 % 0.0 in /  0 mm
10:18 4.1 °F /  -15.5 °C 2.3 °F /  -16.5 °C 1022.9 in /  34635.4 hPa NE 5.3 mph /  8.5 km/h 10.1 mph /  16.3 km/h 88 % 0.0 in /  0 mm
10:47 4.2 °F /  -15.4 °C 2.4 °F /  -16.4 °C 1022.9 in /  34635.4 hPa ENE 8.5 mph /  13.7 km/h 12.6 mph /  20.3 km/h 88 % 0.0 in /  0 mm
10:57 4.3 °F /  -15.4 °C 2.5 °F /  -16.4 °C 1021.9 in /  34601.5 hPa NNE 7.4 mph /  11.9 km/h 17.7 mph /  28.5 km/h 88 % 0.0 in /  0 mm
11:06 4.4 °F /  -15.3 °C 2.6 °F /  -16.3 °C 1021.9 in /  34601.5 hPa East 7.9 mph /  12.7 km/h 20.1 mph /  32.3 km/h 88 % 0.0 in /  0 mm
11:18 4.5 °F /  -15.3 °C 2.7 °F /  -16.3 °C 1021.9 in /  34601.5 hPa ESE 8.8 mph /  14.2 km/h 19.5 mph /  31.4 km/h 88 % 0.0 in /  0 mm
11:28 4.6 °F /  -15.2 °C 2.8 °F /  -16.2 °C 1022.9 in /  34635.4 hPa East 8.2 mph /  13.2 km/h 16.3 mph /  26.2 km/h 88 % 0.0 in /  0 mm
11:36 4.5 °F /  -15.3 °C 2.7 °F /  -16.3 °C 1022.9 in /  34635.4 hPa NE 5.1 mph /  8.2 km/h 9.0 mph /  14.5 km/h 88 % 0.0 in /  0 mm
11:50 4.5 °F /  -15.3 °C 2.5 °F /  -16.4 °C 1021.9 in /  34601.5 hPa ENE 4.5 mph /  7.2 km/h 11.6 mph /  18.7 km/h 87 % 0.0 in /  0 mm
11:55 4.4 °F /  -15.3 °C 2.4 °F /  -16.4 °C 1021.9 in /  34601.5 hPa ENE 5.6 mph /  9 km/h 13.7 mph /  22 km/h 87 % 0.0 in /  0 mm
12:33 4.3 °F /  -15.4 °C 2.2 °F /  -16.6 °C 1022.9 in /  34635.4 hPa East 6.0 mph /  9.7 km/h 9.7 mph /  15.6 km/h 86 % 0.0 in /  0 mm
12:43 4.1 °F /  -15.5 °C 1.9 °F /  -16.7 °C 1022.9 in /  34635.4 hPa ENE 7.2 mph /  11.6 km/h 13.7 mph /  22 km/h 86 % 0.0 in /  0 mm
12:52 4.1 °F /  -15.5 °C 1.9 °F /  -16.7 °C 1022.9 in /  34635.4 hPa ENE 6.9 mph /  11.1 km/h 11.9 mph /  19.2 km/h 86 % 0.0 in /  0 mm
12:57 4.1 °F /  -15.5 °C 1.9 °F /  -16.7 °C 1022.9 in /  34635.4 hPa East 6.9 mph /  11.1 km/h 14.3 mph /  23 km/h 86 % 0.0 in /  0 mm
13:04 4.1 °F /  -15.5 °C 1.9 °F /  -16.7 °C 1022.9 in /  34635.4 hPa East 7.6 mph /  12.2 km/h 13.7 mph /  22 km/h 86 % 0.0 in /  0 mm
13:21 4.1 °F /  -15.5 °C 1.9 °F /  -16.7 °C 1022.9 in /  34635.4 hPa East 6.8 mph /  10.9 km/h 12.6 mph /  20.3 km/h 86 % 0.0 in /  0 mm
13:26 4.0 °F /  -15.6 °C 1.9 °F /  -16.7 °C 1022.9 in /  34635.4 hPa ENE 8.0 mph /  12.9 km/h 17.7 mph /  28.5 km/h 86 % 0.0 in /  0 mm
13:38 4.0 °F /  -15.6 °C 1.9 °F /  -16.7 °C 1022.9 in /  34635.4 hPa East 7.6 mph /  12.2 km/h 15.4 mph /  24.8 km/h 86 % 0.0 in /  0 mm
13:47 4.0 °F /  -15.6 °C 1.9 °F /  -16.7 °C 1022.9 in /  34635.4 hPa ENE 7.4 mph /  11.9 km/h 14.0 mph /  22.5 km/h 86 % 0.0 in /  0 mm
13:58 4.0 °F /  -15.6 °C 1.9 °F /  -16.7 °C 1022.9 in /  34635.4 hPa East 7.1 mph /  11.4 km/h 11.6 mph /  18.7 km/h 86 % 0.0 in /  0 mm
14:06 4.0 °F /  -15.6 °C 1.9 °F /  -16.7 °C 1022.9 in /  34635.4 hPa ENE 6.8 mph /  10.9 km/h 10.1 mph /  16.3 km/h 86 % 0.0 in /  0 mm
14:20 4.0 °F /  -15.6 °C 1.9 °F /  -16.7 °C 1022.9 in /  34635.4 hPa East 6.1 mph /  9.8 km/h 11.6 mph /  18.7 km/h 86 % 0.0 in /  0 mm
14:37 3.9 °F /  -15.6 °C 1.9 °F /  -16.7 °C 1022.9 in /  34635.4 hPa ENE 5.5 mph /  8.9 km/h 12.2 mph /  19.6 km/h 87 % 0.0 in /  0 mm
14:48 3.9 °F /  -15.6 °C 1.9 °F /  -16.7 °C 1022.9 in /  34635.4 hPa ENE 6.3 mph /  10.1 km/h 11.6 mph /  18.7 km/h 87 % 0.0 in /  0 mm
14:56 3.9 °F /  -15.6 °C 1.9 °F /  -16.7 °C 1022.9 in /  34635.4 hPa ENE 7.1 mph /  11.4 km/h 13.7 mph /  22 km/h 87 % 0.0 in /  0 mm
15:06 3.9 °F /  -15.6 °C 1.9 °F /  -16.7 °C 1022.9 in /  34635.4 hPa NE 5.1 mph /  8.2 km/h 13.7 mph /  22 km/h 87 % 0.0 in /  0 mm
15:11 3.8 °F /  -15.7 °C 1.8 °F /  -16.8 °C 1022.9 in /  34635.4 hPa ENE 6.4 mph /  10.3 km/h 13.0 mph /  20.9 km/h 87 % 0.0 in /  0 mm
15:24 3.8 °F /  -15.7 °C 1.8 °F /  -16.8 °C 1022.9 in /  34635.4 hPa ENE 6.6 mph /  10.6 km/h 13.7 mph /  22 km/h 87 % 0.0 in /  0 mm
15:49 3.7 °F /  -15.7 °C 1.7 °F /  -16.8 °C 1022.9 in /  34635.4 hPa NE 6.8 mph /  10.9 km/h 15.1 mph /  24.3 km/h 87 % 0.0 in /  0 mm
15:56 3.7 °F /  -15.7 °C 1.7 °F /  -16.8 °C 1022.9 in /  34635.4 hPa NE 6.4 mph /  10.3 km/h 10.1 mph /  16.3 km/h 87 % 0.0 in /  0 mm
16:05 3.6 °F /  -15.8 °C 1.6 °F /  -16.9 °C 1022.9 in /  34635.4 hPa NE 7.2 mph /  11.6 km/h 14.0 mph /  22.5 km/h 87 % 0.0 in /  0 mm
16:10 3.6 °F /  -15.8 °C 1.6 °F /  -16.9 °C 1022.9 in /  34635.4 hPa NE 4.7 mph /  7.6 km/h 11.1 mph /  17.9 km/h 87 % 0.0 in /  0 mm
16:19 3.6 °F /  -15.8 °C 1.6 °F /  -16.9 °C 1022.9 in /  34635.4 hPa NE 4.2 mph /  6.8 km/h 9.3 mph /  15 km/h 87 % 0.0 in /  0 mm
16:30 3.6 °F /  -15.8 °C 1.8 °F /  -16.8 °C 1022.9 in /  34635.4 hPa ENE 5.0 mph /  8 km/h 9.3 mph /  15 km/h 88 % 0.0 in /  0 mm
16:36 3.6 °F /  -15.8 °C 1.8 °F /  -16.8 °C 1022.9 in /  34635.4 hPa NE 5.1 mph /  8.2 km/h 9.3 mph /  15 km/h 88 % 0.0 in /  0 mm
16:54 3.6 °F /  -15.8 °C 1.8 °F /  -16.8 °C 1022.9 in /  34635.4 hPa ENE 4.8 mph /  7.7 km/h 9.7 mph /  15.6 km/h 88 % 0.0 in /  0 mm
17:02 3.6 °F /  -15.8 °C 1.8 °F /  -16.8 °C 1022.9 in /  34635.4 hPa East 6.1 mph /  9.8 km/h 14.0 mph /  22.5 km/h 88 % 0.0 in /  0 mm
17:10 3.6 °F /  -15.8 °C 1.8 °F /  -16.8 °C 1022.9 in /  34635.4 hPa East 3.9 mph /  6.3 km/h 9.7 mph /  15.6 km/h 88 % 0.0 in /  0 mm
17:23 3.6 °F /  -15.8 °C 1.8 °F /  -16.8 °C 1022.9 in /  34635.4 hPa East 3.1 mph /  5 km/h 10.5 mph /  16.9 km/h 88 % 0.0 in /  0 mm
17:30 3.6 °F /  -15.8 °C 1.8 °F /  -16.8 °C 1022.9 in /  34635.4 hPa East 5.6 mph /  9 km/h 10.5 mph /  16.9 km/h 88 % 0.0 in /  0 mm
17:54 3.5 °F /  -15.8 °C 1.7 °F /  -16.8 °C 1022.9 in /  34635.4 hPa ENE 4.8 mph /  7.7 km/h 9.0 mph /  14.5 km/h 88 % 0.0 in /  0 mm
18:00 3.5 °F /  -15.8 °C 1.6 °F /  -16.9 °C 1023.9 in /  34669.3 hPa East 5.1 mph /  8.2 km/h 10.1 mph /  16.3 km/h 87 % 0.0 in /  0 mm
18:10 3.5 °F /  -15.8 °C 1.6 °F /  -16.9 °C 1023.9 in /  34669.3 hPa East 6.9 mph /  11.1 km/h 18.0 mph /  29 km/h 87 % 0.0 in /  0 mm
18:19 3.5 °F /  -15.8 °C 1.6 °F /  -16.9 °C 1022.9 in /  34635.4 hPa East 7.6 mph /  12.2 km/h 16.3 mph /  26.2 km/h 87 % 0.0 in /  0 mm
18:24 3.4 °F /  -15.9 °C 1.4 °F /  -17 °C 1022.9 in /  34635.4 hPa East 7.6 mph /  12.2 km/h 16.3 mph /  26.2 km/h 87 % 0.0 in /  0 mm
18:33 3.4 °F /  -15.9 °C 1.4 °F /  -17 °C 1021.9 in /  34601.5 hPa East 6.8 mph /  10.9 km/h 11.6 mph /  18.7 km/h 87 % 0.0 in /  0 mm
18:42 3.4 °F /  -15.9 °C 1.4 °F /  -17 °C 1021.9 in /  34601.5 hPa ENE 4.8 mph /  7.7 km/h 9.7 mph /  15.6 km/h 87 % 0.0 in /  0 mm
19:00 3.3 °F /  -15.9 °C 1.3 °F /  -17.1 °C 1022.9 in /  34635.4 hPa East 5.0 mph /  8 km/h 9.7 mph /  15.6 km/h 87 % 0.0 in /  0 mm
19:19 3.3 °F /  -15.9 °C 1.3 °F /  -17.1 °C 1022.9 in /  34635.4 hPa ENE 8.7 mph /  14 km/h 16.3 mph /  26.2 km/h 87 % 0.0 in /  0 mm
19:31 3.3 °F /  -15.9 °C 1.3 °F /  -17.1 °C 1022.9 in /  34635.4 hPa East 6.3 mph /  10.1 km/h 11.9 mph /  19.2 km/h 87 % 0.0 in /  0 mm
19:37 3.3 °F /  -15.9 °C 1.3 °F /  -17.1 °C 1022.9 in /  34635.4 hPa East 5.8 mph /  9.3 km/h 11.9 mph /  19.2 km/h 87 % 0.0 in /  0 mm
19:43 3.2 °F /  -16 °C 1.2 °F /  -17.1 °C 1022.9 in /  34635.4 hPa ENE 8.0 mph /  12.9 km/h 13.7 mph /  22 km/h 87 % 0.0 in /  0 mm
19:49 3.2 °F /  -16 °C 1.2 °F /  -17.1 °C 1022.9 in /  34635.4 hPa ENE 8.7 mph /  14 km/h 16.3 mph /  26.2 km/h 87 % 0.0 in /  0 mm
20:01 3.1 °F /  -16.1 °C 1.2 °F /  -17.1 °C 1021.9 in /  34601.5 hPa East 6.4 mph /  10.3 km/h 11.9 mph /  19.2 km/h 87 % 0.0 in /  0 mm
20:07 3.1 °F /  -16.1 °C 1.2 °F /  -17.1 °C 1021.9 in /  34601.5 hPa ENE 6.4 mph /  10.3 km/h 10.1 mph /  16.3 km/h 87 % 0.0 in /  0 mm
20:17 3.1 °F /  -16.1 °C 1.2 °F /  -17.1 °C 1022.9 in /  34635.4 hPa East 6.4 mph /  10.3 km/h 12.2 mph /  19.6 km/h 87 % 0.0 in /  0 mm
20:27 3.1 °F /  -16.1 °C 1.2 °F /  -17.1 °C 1022.9 in /  34635.4 hPa East 7.9 mph /  12.7 km/h 14.3 mph /  23 km/h 87 % 0.0 in /  0 mm
20:45 3.0 °F /  -16.1 °C 1.1 °F /  -17.2 °C 1022.9 in /  34635.4 hPa ENE 7.7 mph /  12.4 km/h 13.7 mph /  22 km/h 87 % 0.0 in /  0 mm
20:52 3.0 °F /  -16.1 °C 1.1 °F /  -17.2 °C 1022.9 in /  34635.4 hPa ENE 7.2 mph /  11.6 km/h 14.0 mph /  22.5 km/h 87 % 0.0 in /  0 mm
20:59 3.0 °F /  -16.1 °C 1.1 °F /  -17.2 °C 1022.9 in /  34635.4 hPa ENE 8.5 mph /  13.7 km/h 13.7 mph /  22 km/h 87 % 0.0 in /  0 mm
21:05 3.0 °F /  -16.1 °C 1.1 °F /  -17.2 °C 1022.9 in /  34635.4 hPa East 8.5 mph /  13.7 km/h 13.7 mph /  22 km/h 87 % 0.0 in /  0 mm
21:22 3.0 °F /  -16.1 °C 1.1 °F /  -17.2 °C 1022.9 in /  34635.4 hPa ENE 8.8 mph /  14.2 km/h 13.0 mph /  20.9 km/h 87 % 0.0 in /  0 mm
21:32 2.9 °F /  -16.2 °C 0.9 °F /  -17.3 °C 1022.9 in /  34635.4 hPa ENE 9.3 mph /  15 km/h 14.8 mph /  23.8 km/h 87 % 0.0 in /  0 mm
21:39 2.9 °F /  -16.2 °C 0.9 °F /  -17.3 °C 1022.9 in /  34635.4 hPa ENE 8.2 mph /  13.2 km/h 14.8 mph /  23.8 km/h 87 % 0.0 in /  0 mm
21:47 2.8 °F /  -16.2 °C 0.8 °F /  -17.3 °C 1021.9 in /  34601.5 hPa ENE 7.9 mph /  12.7 km/h 13.7 mph /  22 km/h 87 % 0.0 in /  0 mm
21:52 2.8 °F /  -16.2 °C 0.8 °F /  -17.3 °C 1021.9 in /  34601.5 hPa ENE 7.9 mph /  12.7 km/h 13.7 mph /  22 km/h 87 % 0.0 in /  0 mm
21:59 2.8 °F /  -16.2 °C 0.8 °F /  -17.3 °C 1022.9 in /  34635.4 hPa ENE 6.6 mph /  10.6 km/h 11.9 mph /  19.2 km/h 87 % 0.0 in /  0 mm
22:06 2.8 °F /  -16.2 °C 0.8 °F /  -17.3 °C 1022.9 in /  34635.4 hPa ENE 6.6 mph /  10.6 km/h 11.9 mph /  19.2 km/h 87 % 0.0 in /  0 mm
22:15 2.8 °F /  -16.2 °C 0.8 °F /  -17.3 °C 1021.9 in /  34601.5 hPa ENE 7.2 mph /  11.6 km/h 12.6 mph /  20.3 km/h 87 % 0.0 in /  0 mm
22:28 2.7 °F /  -16.3 °C 0.8 °F /  -17.3 °C 1021.9 in /  34601.5 hPa ENE 5.3 mph /  8.5 km/h 10.1 mph /  16.3 km/h 87 % 0.0 in /  0 mm
22:40 2.7 °F /  -16.3 °C 0.8 °F /  -17.3 °C 1021.9 in /  34601.5 hPa NE 4.5 mph /  7.2 km/h 14.8 mph /  23.8 km/h 87 % 0.0 in /  0 mm
22:48 2.7 °F /  -16.3 °C 0.9 °F /  -17.3 °C 1021.9 in /  34601.5 hPa East 5.5 mph /  8.9 km/h 10.8 mph /  17.4 km/h 88 % 0.0 in /  0 mm
22:55 2.7 °F /  -16.3 °C 0.9 °F /  -17.3 °C 1021.9 in /  34601.5 hPa East 6.1 mph /  9.8 km/h 11.6 mph /  18.7 km/h 88 % 0.0 in /  0 mm
23:13 2.7 °F /  -16.3 °C 0.9 °F /  -17.3 °C 1021.9 in /  34601.5 hPa ENE 4.3 mph /  6.9 km/h 6.9 mph /  11.1 km/h 88 % 0.0 in /  0 mm
23:24 2.7 °F /  -16.3 °C 0.9 °F /  -17.3 °C 1021.9 in /  34601.5 hPa ENE 3.9 mph /  6.3 km/h 6.9 mph /  11.1 km/h 88 % 0.0 in /  0 mm
23:29 2.7 °F /  -16.3 °C 0.9 °F /  -17.3 °C 1021.9 in /  34601.5 hPa ENE 3.2 mph /  5.1 km/h 7.9 mph /  12.7 km/h 88 % 0.0 in /  0 mm
23:36 2.6 °F /  -16.3 °C 0.8 °F /  -17.3 °C 1021.9 in /  34601.5 hPa NE 3.5 mph /  5.6 km/h 9.0 mph /  14.5 km/h 88 % 0.0 in /  0 mm
23:44 2.6 °F /  -16.3 °C 0.8 °F /  -17.3 °C 1023.9 in /  34669.3 hPa ENE 4.0 mph /  6.4 km/h 9.0 mph /  14.5 km/h 88 % 0.0 in /  0 mm
Vremenska postaja Senovo
Podatki zbrani iz Weather Underground - 2 mb

Script developed by  Jim McMurry - jmcmurry@mwt.net Adapted for the template by  Wim van der Kuil - Leuven-Template.eu

Vremenski podatki so objavljeni na:

European Weather Network

WeatherCloud

Weather Underground

AWEKAS

HAMweather, WeatherForYou, PWS Weather

MapView

Geostik

Slovenia weather network

Oprema, ki se uporablja:

Vremenski program
Cumulus

Vremenski server
Asus

Cumulus

Asus